イヌヴィック空港の過去48時間の天気

イヌヴィック空港 (Inuvik)

現在時刻: 8/18 08:05 MDT (8/18 14:05 UTC) 以下の時間は現地時間です。

過去48時間のMETAR気象情報
時間 風向 風速(m/s) 視程 気温(℃) 湿度(%) 気圧(hPa) 天気現象
18 07:51 西 6 8050m 10 100 997.7 弱い雨 もや
18 07:42 西 7 8050m 11 94 997.6 雨 もや
18 07:00 西 6 4850m 12 100 997 雨 もや
18 06:00 西 5 8050m 14 100 995.8 雨 もや
18 05:56 西 6 8050m 14 100 995.8 雨 もや
18 05:24 西 4 10km以上 14 100 995.3 弱い雨
18 05:00 西 5 8050m 14 100 995.1 雨 もや
18 04:55 西 4 8050m 14 100 995.1 雨 もや
18 04:34 西南西 4 4850m 14 100 995.1 強い雨 もや
18 04:22 南西 2 8050m 14 100 995 弱い雨 もや
18 04:05 西南西 3 8050m 14 100 995 雨 もや
18 03:55 西南西 3 10km以上 14 100 995.1
18 03:43 南西 3 10km以上 15 94 995.2 弱い雨
18 03:00 不定 2 10km以上 15 100 994.7 弱い雨
18 02:55 3 10km以上 15 100 994.2 弱い雨
18 02:27 南南東 2 10km以上 16 88 995.7
18 02:00 静穏 0 10km以上 16 88 995.6 弱い雨
18 01:17 南南西 1 10km以上 16 82 996 弱い雨
18 01:00 2 10km以上 16 82 995.8
18 00:00 静穏 0 10km以上 18 68 996.2
17 23:00 北東 2 10km以上 19 64 996.9
17 22:00 北東 2 10km以上 20 60 997.5
17 21:00 南南東 2 10km以上 21 56 998.2
17 20:00 4 10km以上 22 53 999.2
17 19:00 南南東 5 10km以上 22 53 999.9
17 18:00 南南東 5 10km以上 23 50 1000.8
17 17:00 東南東 7 10km以上 23 53 1001.8
17 16:00 南東 6 10km以上 22 57 1002.6
17 15:00 東南東 4 10km以上 22 53 1003.9
17 14:00 6 10km以上 21 56 1004.4
17 13:00 東南東 6 10km以上 21 53 1005.8
17 12:00 6 10km以上 19 64 1006.6
17 11:00 7 10km以上 18 68 1007.5
17 10:00 6 10km以上 17 72 1008.2
17 09:00 5 10km以上 15 77 1009.3
17 08:00 6 10km以上 14 82 1009.8
17 07:00 東北東 3 10km以上 13 82 1010.7
17 06:00 不定 1 10km以上 13 88 1011.3
17 05:00 東北東 3 10km以上 12 88 1011.5
17 04:00 3 10km以上 13 82 1011.5
17 03:00 東北東 3 10km以上 13 82 1011.8
17 02:00 東北東 4 10km以上 13 82 1011.7
17 01:00 東北東 6 10km以上 14 77 1011.6
17 00:00 北東 5 10km以上 14 77 1011.7
16 23:00 北東 3 10km以上 14 77 1011.7
16 22:00 東北東 4 10km以上 16 72 1011.7
16 21:00 東北東 5 10km以上 18 64 1011.8
16 20:00 東北東 5 10km以上 18 64 1011.7
16 19:00 東南東 2 10km以上 20 53 1011.9
16 18:00 2 10km以上 19 60 1012
16 17:00 北西 3 10km以上 18 64 1012.1
16 16:00 北西 3 10km以上 18 64 1012.1
16 15:00 西 4 10km以上 17 72 1011.9
16 14:00 西北西 4 10km以上 17 72 1011.5
CYEV 181351Z 27011G21KT 5SM -RA BR BKN006 OVC011 10/10 A2945 RMK ST6SC2 CIG RAG SLP977 DENSITY ALT 300FT
CYEV 181342Z 27013G21KT 5SM RA BR BKN005 OVC012 11/10 A2945 RMK ST6SC2 CIG RAG SLP976 DENSITY ALT 300FT
CYEV 181300Z 28011G21KT 3SM RA BR BKN003 OVC010 12/12 A2943 RMK ST7SC1 CIG RAG VIS HYR W SLP970 DENSITY ALT 500FT
CYEV 181200Z CCA 26010G17KT 5SM RA BR BKN003 OVC010 14/14 A2939 RMK ST6SC2 CIG RAG /R13/ SLP958 DENSITY ALT 800FT
CYEV 181156Z 27011KT 5SM RA BR BKN003 OVC010 14/14 A2939 RMK ST6SC2 CIG RAG SLP958 DENSITY ALT 800FT
CYEV 181124Z 27008KT 240V300 7SM -RA BKN003 OVC012 14/14 A2938 RMK ST6SC2 SLP953 DENSITY ALT 800FT
CYEV 181100Z 27009G15KT 5SM RA BR SCT003 BKN006 OVC012 14/14 A2937 RMK ST3SC4SC1 SLP951 DENSITY ALT 900FT
CYEV 181055Z 27008KT 240V300 5SM RA BR SCT003 BKN006 OVC012 14/14 A2937 RMK ST3SC4SC1 SLP951 DENSITY ALT 900FT
CYEV 181034Z 25008KT 200V280 3SM +RA BR BKN005 OVC011 14/14 A2937 RMK ST6SC2 CIG RAG SLP951 DENSITY ALT 900FT
CYEV 181022Z 23004KT 5SM -RA BR BKN007 BKN012 OVC019 14/14 A2937 RMK ST5SC2SC1 SLP950 DENSITY ALT 900FT
CYEV 181005Z 24006KT 5SM RA BR FEW008 SCT012 BKN021 OVC029 14/14 A2937 RMK ST1SC3SC2SC2 SLP950 DENSITY ALT 900FT
CYEV 180955Z 24005KT 15SM FEW005 SCT012 BKN023 14/14 A2937 RMK ST1SC2SC4 SLP951 DENSITY ALT 900FT
CYEV 180943Z 22006KT 15SM -RA SCT005 BKN026 15/14 A2938 RMK ST3SC4 SLP952 DENSITY ALT 900FT
CYEV 180900Z VRB04KT 15SM -RA SCT040 BKN068 BKN081 15/15 A2936 RMK SC3AC2AC2 SLP947 DENSITY ALT 1000FT
CYEV 180855Z 35006KT 15SM -RA SCT040 BKN068 BKN081 15/15 A2935 RMK SC3AC2AC2 PRESFR SLP942 DENSITY ALT 1000FT
CYEV 180827Z 16004KT 040V200 15SM RA SCT040 OVC081 16/14 A2939 RMK SC4AC4 SLP957 DENSITY ALT 1000FT
CYEV 180800Z 00000KT 15SM -RA BKN081 OVC091 16/14 A2939 RMK AC5AC3 SLP956 DENSITY ALT 1000FT
CYEV 180717Z 20002KT 15SM -RA BKN081 OVC087 16/13 A2940 RMK AC7AC1 SLP960 DENSITY ALT 1100FT
CYEV 180700Z 19003KT 110V220 15SM BKN081 OVC086 16/13 A2939 RMK AC7AC1 SLP958 DENSITY ALT 1100FT
CYEV 180600Z 00000KT 15SM BKN081 OVC094 18/12 A2940 RMK AC6AC2 SLP962 DENSITY ALT 1200FT
CYEV 180500Z 05003KT 15SM BKN077 OVC150 19/12 A2943 RMK AC5AS3 SLP969 DENSITY ALT 1300FT
CYEV 180400Z 05003KT 15SM SCT077 BKN140 OVC160 20/12 A2944 RMK AC3AC4AC1 SLP975 DENSITY ALT 1400FT
CYEV 180300Z 16004KT 15SM BKN094 BKN150 OVC220 21/12 A2946 RMK AC5AC2CS1 SLP982 DENSITY ALT 1500FT
CYEV 180200Z 18008KT 15SM BKN087 BKN150 22/12 A2949 RMK AC7AC1 AC TR SLP992 DENSITY ALT 1600FT
CYEV 180100Z 16009KT 15SM FEW040 SCT050 BKN080 OVC100 22/12 A2951 RMK CU1SC3AC2AC2 SLP999 DENSITY ALT 1600FT
CYEV 180000Z 16009G15KT 15SM SCT040TCU SCT090 BKN120 BKN220 23/12 A2954 RMK TCU3AC1AC2CS2 VIRGA SLP008 DENSITY ALT 1700FT
CYEV 172300Z 12014KT 15SM SCT040 BKN100 BKN150 23/13 A2957 RMK CU3AC2AC1 SLP018 DENSITY ALT 1600FT
CYEV 172200Z 13012KT 15SM FEW040 BKN100 BKN150 22/13 A2959 RMK SC1AC6AC1 SC TR SLP026 DENSITY ALT 1500FT
CYEV 172100Z CCA 11008KT 15SM FEW060 BKN100 OVC150 22/12 A2963 RMK SC1AC7AC1 SC TR SLP039 DENSITY ALT 1400FT
CYEV 172000Z 08012G19KT 15SM FEW060 SCT100 OVC150 21/12 A2965 RMK SC1AC2AC5 SLP044 DENSITY ALT 1300FT
CYEV 171900Z 11012KT 070V140 15SM FEW100 SCT180 BKN240 21/11 A2969 RMK AC2AC2CI3 SLP058 DENSITY ALT 1300FT
CYEV 171800Z 10012G19KT 15SM FEW090 BKN200 19/12 A2971 RMK AC2CS5 SLP066 DENSITY ALT 1100FT
CYEV 171700Z 10013KT 15SM FEW090 BKN260 18/12 A2974 RMK AC2CI5 SLP075 DENSITY ALT 900FT
CYEV 171600Z 10011G17KT 15SM FEW050 FEW140 BKN260 17/12 A2976 RMK SC1AC1CI7 SC TR AC TR SLP082 DENSITY ALT 800FT
CYEV 171500Z 08010KT 15SM FEW140 SCT240 15/11 A2979 RMK AC1CI3 AC TR SLP093 DENSITY ALT 500FT
CYEV 171400Z 08011KT 15SM FEW140 SCT220 14/11 A2981 RMK AC1CS4 AC TR SLP098 DENSITY ALT 400FT
CYEV 171300Z 07006KT 15SM FEW140 SCT220 13/10 A2983 RMK AC1CS3 SLP107
CYEV 171200Z VRB02KT 15SM FEW120 BKN220 13/11 A2985 RMK AC1CS5 SLP113
CYEV 171100Z 06005KT 15SM FEW100 BKN240 12/10 A2986 RMK AC1CI6 AC TR SLP115
CYEV 171000Z 08005KT 15SM FEW110 BKN260 13/10 A2986 RMK AC1CI5 AC TR SLP115
CYEV 170900Z 07006KT 15SM FEW110 SCT260 13/10 A2986 RMK AC1CI3 AC TR SLP118
CYEV 170800Z 06008KT 15SM FEW120 SCT260 13/10 A2986 RMK AC1CI3 AC TR SLP117
CYEV 170700Z 06011KT 15SM FEW120 FEW260 14/10 A2986 RMK AC1CI2 AC TR SLP116
CYEV 170600Z 05010KT 15SM FEW120 FEW260 14/10 A2986 RMK AC1CI1 SLP117
CYEV 170500Z 05006KT 15SM FEW100 FEW250 14/10 A2986 RMK AC1CI2 AC TR SLP117 DENSITY ALT 300FT
CYEV 170400Z 07007KT 15SM FEW024 FEW250 16/11 A2986 RMK CU1CI1 CU TR SLP117 DENSITY ALT 500FT
CYEV 170300Z 07009KT 15SM FEW028TCU FEW100 SCT250 18/11 A2986 RMK TCU1AC1CI1 AC TR SLP118 DENSITY ALT 700FT
CYEV 170200Z 07009KT 15SM FEW032TCU FEW100 SCT210 SCT250 18/11 A2986 RMK TCU1AC1CC1CI1 CC TR SLP117 DENSITY ALT 800FT
CYEV 170100Z 11003KT 030V130 15SM FEW036TCU FEW100 SCT210 20/10 A2987 RMK TCU1AC1CC2 SLP119 DENSITY ALT 900FT
CYEV 170000Z 35004KT 310V050 15SM FEW032TCU FEW100 SCT210 SCT250 19/11 A2987 RMK TCU1AC1CC2CI1 AC TR CI TR SLP120 DENSITY ALT 900FT
CYEV 162300Z 32005KT 250V010 15SM FEW028TCU FEW090 SCT220 18/11 A2987 RMK TCU1AC1CC3 AC TR SLP121 DENSITY ALT 800FT
CYEV 162200Z 31006KT 250V340 15SM FEW020 FEW090 SCT220 18/11 A2987 RMK CU1AC1CC4 CU TR AC TR SLP121 DENSITY ALT 700FT
CYEV 162100Z 28007KT 230V320 15SM FEW020 FEW090 FEW240 17/12 A2987 RMK CU1AC1CI1 CU TR AC TR SLP119 DENSITY ALT 600FT
CYEV 162000Z 29007KT 240V330 15SM FEW020TCU FEW180 SCT240 17/12 A2985 RMK TCU1AC1CI1 CI TR SLP115 DENSITY ALT 700FT